Wagener, SC

3:38 AM EST on March 04, 2015 (GMT -0500)
Columbia Owens Downtown | Change Station
CLOSE
Current Station
Airport
Location: Columbia Owens,
Elevation: 213 ft
Nearby Weather Stations
Active Advisory: Dense Fog Advisory

Elev 213 ft 33.97 °N, 80.99 °W | Updated 45 minutes ago

Overcast
Overcast
45 °F
Feels Like 45 °F
N
0
Wind Variable Wind from North

Today
High -- | Low -- °F
--% Chance of Precip.
Yesterday
High -- | Low -- °F
Precip. -- in
6:50 AM 6:24 PM
Waxing Gibbous, 98% visible
Pressure 30.09 in
Visibility 0.2 miles
Clouds
Dew Point 44 °F
Humidity 97%
Rainfall 0.00 in
Snow Depth Not available.
UV Not available.
Pollen .30 out of 12
Air Quality Not available.
Flu Activity Not available.
METAR KCUB 040753Z AUTO 00000KT 1/4SM FG VV002 07/07 A3009 RMK AO2 SLP188 T00720067

More Conditions Fewer Conditions

Pressure 30.09 in
Visibility 0.2 miles
Clouds
Dew Point 44 °F
Humidity 97%
Rainfall 0.00 in
Snow Depth Not available.
UV Not available.
Pollen .30 out of 12
Air Quality Not available.
Flu Activity Not available.
METAR KCUB 040753Z AUTO 00000KT 1/4SM FG VV002 07/07 A3009 RMK AO2 SLP188 T00720067

More Conditions Fewer Conditions

10-Day Weather Forecast

Almanac

Astronomy

Mar. 04, 2015 Rise Set
Actual Time
Civil Twilight
Nautical Twilight
Astronomical Twilight
Moon
Length of Visible Light
Length of Day
Tomorrow will be .
, % of the Moon is Illuminated

Today's Extremes

State Highs State Lows

Community

WunderPhotos

Upload Photos

1,802,416 photos uploaded!

WunderBlogs® & News

Nearby

Air Quality

  Air Quality AQ Index Pollutant
Not available.

Snow Depth

Station Depth Elevation

Earthquake Activity

City Distance Mag. Time & Date
Minimum magnitude displayed is 2.5.

Coastal Water Temperatures

Place Temperature

Nearby Weather Stations

Dense Fog Advisory
Statement as of 7:44 PM EST on March 03, 2015

... Dense fog advisory in effect from midnight tonight to 9 am EST
Wednesday...

The National Weather Service in Columbia has issued a dense fog
advisory... which is in effect from midnight tonight to 9 am EST
Wednesday.

* Visibility... one quarter mile or less.

* Impacts... hazardous driving conditions.

Precautionary/preparedness actions...

A dense fog advisory means visibilities will frequently be
reduced to less than one quarter mile. If driving... slow down...
use your headlights... and leave plenty of distance ahead of you.